Time;durP1;ratioP1;P1;durP2;ratioP2;P2;SDS_P1;SDS_P2;PMS_P1;PMS_P2;Temp;Humidity;BMP_temperature;BMP_pressure;BME280_temperature;BME280_humidity;BME280_pressure;Samples;Min_cycle;Max_cycle;Signal;HPM_P1;HPM_P2
2021/06/09 00:01:04;;;;;;;6.47;5.90;;;20.00;1.00;;;;;;5032555;28;20113;-84
2021/06/09 00:03:30;;;;;;;6.43;5.82;;;20.10;1.00;;;;;;5031907;28;20029;-84
2021/06/09 00:05:56;;;;;;;9.15;6.20;;;20.00;1.00;;;;;;5033060;28;20112;-84
2021/06/09 00:08:22;;;;;;;6.25;5.63;;;20.00;1.00;;;;;;5014665;28;20112;-84
2021/06/09 00:10:50;;;;;;;6.50;5.88;;;20.00;1.00;;;;;;5032715;28;20040;-84
2021/06/09 00:13:16;;;;;;;6.57;5.88;;;20.00;1.00;;;;;;5033241;28;20029;-84
2021/06/09 00:15:42;;;;;;;6.97;6.30;;;19.90;1.00;;;;;;5032332;28;20059;-84
2021/06/09 00:18:08;;;;;;;7.32;6.00;;;19.80;1.00;;;;;;5031553;28;20091;-84
2021/06/09 00:20:33;;;;;;;6.75;6.15;;;19.70;1.00;;;;;;5014740;28;20064;-84
2021/06/09 00:22:59;;;;;;;6.50;5.90;;;19.70;1.00;;;;;;5032647;28;20128;-84
2021/06/09 00:25:25;;;;;;;7.38;6.07;;;19.70;1.00;;;;;;5032670;28;20047;-84
2021/06/09 00:27:53;;;;;;;6.53;5.90;;;19.70;1.00;;;;;;5032081;28;20034;-84
2021/06/09 00:30:24;;;;;;;8.10;6.28;;;19.70;1.00;;;;;;5032292;28;20044;-84
2021/06/09 00:32:50;;;;;;;7.97;5.50;;;19.60;1.00;;;;;;5009596;28;20080;-83
2021/06/09 00:35:16;;;;;;;8.48;6.00;;;19.60;1.00;;;;;;5032140;28;20060;-84
2021/06/09 00:37:42;;;;;;;6.80;6.03;;;19.60;1.00;;;;;;5032415;28;20104;-84
2021/06/09 00:40:10;;;;;;;7.10;5.95;;;19.60;1.00;;;;;;5032506;28;20492;-84
2021/06/09 00:42:36;;;;;;;8.77;6.25;;;19.60;1.00;;;;;;5031993;28;20136;-84
2021/06/09 00:45:06;;;;;;;6.50;5.90;;;19.50;1.00;;;;;;5031882;28;20409;-84
2021/06/09 00:47:32;;;;;;;7.00;6.30;;;19.50;1.00;;;;;;5031454;28;20029;-84
2021/06/09 00:49:58;;;;;;;6.93;5.85;;;19.50;1.00;;;;;;5032255;28;20037;-84
2021/06/09 00:52:25;;;;;;;6.90;6.30;;;19.40;1.00;;;;;;5032606;28;20072;-84
2021/06/09 00:54:52;;;;;;;7.13;6.43;;;19.30;1.00;;;;;;5032065;28;20021;-84
2021/06/09 00:57:19;;;;;;;6.55;5.95;;;19.30;1.00;;;;;;5031633;28;20100;-84
2021/06/09 00:59:45;;;;;;;7.07;6.32;;;19.40;1.00;;;;;;5031441;28;20478;-84
2021/06/09 01:02:11;;;;;;;6.32;5.70;;;19.30;1.00;;;;;;5031460;28;20057;-84
2021/06/09 01:04:37;;;;;;;6.40;5.82;;;19.20;1.00;;;;;;5014577;28;20029;-84
2021/06/09 01:07:03;;;;;;;6.80;6.10;;;19.20;1.00;;;;;;5032187;28;20029;-84
2021/06/09 01:09:30;;;;;;;7.13;6.43;;;19.10;1.00;;;;;;5031398;28;20036;-84
2021/06/09 01:11:56;;;;;;;8.32;6.28;;;19.10;1.00;;;;;;5031332;28;20488;-84
2021/06/09 01:14:23;;;;;;;6.90;6.20;;;19.20;1.00;;;;;;5031374;28;20108;-84
2021/06/09 01:16:50;;;;;;;7.55;6.30;;;19.20;1.00;;;;;;5031463;28;20029;-84
2021/06/09 01:19:20;;;;;;;7.22;6.47;;;19.10;1.00;;;;;;5032203;28;20037;-84
2021/06/09 01:21:47;;;;;;;9.48;6.70;;;19.10;1.00;;;;;;5031242;28;20034;-84
2021/06/09 01:24:13;;;;;;;7.15;6.45;;;19.10;1.00;;;;;;5031469;28;20025;-84
2021/06/09 01:26:40;;;;;;;6.82;6.20;;;19.00;1.00;;;;;;5031124;28;20394;-84
2021/06/09 01:29:08;;;;;;;7.95;6.97;;;19.00;1.00;;;;;;5012652;28;20478;-84
2021/06/09 01:31:33;;;;;;;9.88;6.30;;;18.90;1.00;;;;;;5031685;28;20064;-84
2021/06/09 01:34:04;;;;;;;8.35;6.80;;;18.90;1.00;;;;;;5031576;28;20041;-84
2021/06/09 01:36:31;;;;;;;7.22;6.53;;;18.90;1.00;;;;;;5031098;28;20116;-84
2021/06/09 01:38:57;;;;;;;7.00;6.32;;;18.80;1.00;;;;;;5031196;28;20398;-84
2021/06/09 01:41:23;;;;;;;7.00;6.35;;;18.80;1.00;;;;;;5030980;28;20025;-84
2021/06/09 01:43:51;;;;;;;7.82;7.03;;;18.80;1.00;;;;;;5031022;28;20112;-84
2021/06/09 01:46:17;;;;;;;7.35;6.72;;;18.70;1.00;;;;;;5031328;28;20056;-84
2021/06/09 01:48:43;;;;;;;7.05;6.35;;;18.70;1.00;;;;;;5031047;28;20065;-84
2021/06/09 01:51:09;;;;;;;6.97;6.32;;;18.70;1.00;;;;;;5030913;28;20029;-84
2021/06/09 01:53:35;;;;;;;6.70;6.07;;;18.70;1.00;;;;;;5030842;28;20724;-84
2021/06/09 01:56:01;;;;;;;6.93;6.30;;;18.70;1.00;;;;;;5030853;28;20184;-84
2021/06/09 01:58:27;;;;;;;7.15;6.18;;;18.70;1.00;;;;;;5031025;28;20025;-84
2021/06/09 02:00:54;;;;;;;7.22;6.28;;;18.70;1.00;;;;;;5030391;28;20105;-84
2021/06/09 02:03:20;;;;;;;7.65;6.18;;;18.80;1.00;;;;;;5030759;28;20080;-84
2021/06/09 02:05:46;;;;;;;6.90;6.15;;;18.80;1.00;;;;;;5030818;28;20083;-83
2021/06/09 02:08:15;;;;;;;7.03;6.20;;;18.80;1.00;;;;;;5031162;28;20099;-84
2021/06/09 02:10:42;;;;;;;7.93;6.43;;;18.70;1.00;;;;;;5030617;28;20045;-84
2021/06/09 02:13:10;;;;;;;7.35;6.60;;;18.70;1.00;;;;;;5030453;28;20501;-84
2021/06/09 02:15:36;;;;;;;7.22;6.53;;;18.70;1.00;;;;;;5031025;28;20025;-85
2021/06/09 02:18:12;;;;;;;9.85;7.38;;;18.60;1.00;;;;;;5030921;28;20049;-84
2021/06/09 02:20:47;;;;;;;7.68;6.88;;;18.70;1.00;;;;;;5030726;28;20272;-84
2021/06/09 02:23:24;;;;;;;8.57;6.68;;;18.60;1.00;;;;;;5030045;28;20049;-84
2021/06/09 02:25:53;;;;;;;7.68;6.57;;;18.60;1.00;;;;;;5030599;28;20140;-84
2021/06/09 02:28:20;;;;;;;7.30;6.60;;;18.50;1.00;;;;;;5030928;28;20025;-84
2021/06/09 02:30:46;;;;;;;7.68;6.97;;;18.70;1.00;;;;;;5030473;28;20044;-84
2021/06/09 02:33:14;;;;;;;7.72;6.75;;;18.60;1.00;;;;;;5030523;28;20021;-84
2021/06/09 02:35:42;;;;;;;7.60;6.90;;;18.50;1.00;;;;;;5031327;28;20029;-84
2021/06/09 02:38:10;;;;;;;8.15;6.50;;;18.60;1.00;;;;;;5030812;28;20026;-84
2021/06/09 02:40:37;;;;;;;7.00;6.38;;;18.60;1.00;;;;;;5030835;28;20442;-84
2021/06/09 02:43:03;;;;;;;7.57;6.28;;;18.60;1.00;;;;;;5033974;28;20030;-84
2021/06/09 02:45:29;;;;;;;7.70;7.00;;;18.70;1.00;;;;;;5033945;28;20030;-84
2021/06/09 02:48:00;;;;;;;7.28;6.57;;;18.60;1.00;;;;;;5034031;28;20064;-84
2021/06/09 02:50:26;;;;;;;8.57;6.95;;;18.60;1.00;;;;;;5034159;28;20044;-84
2021/06/09 02:53:17;;;;;;;6.90;6.20;;;18.60;1.00;;;;;;5034520;28;20021;-84
2021/06/09 02:55:50;;;;;;;9.93;7.65;;;18.60;1.00;;;;;;5030896;28;20505;-84
2021/06/09 02:58:19;;;;;;;7.43;6.72;;;18.60;1.00;;;;;;5033357;28;20040;-84
2021/06/09 03:00:58;;;;;;;7.93;7.22;;;18.70;1.00;;;;;;5033861;28;20083;-83
2021/06/09 03:03:40;;;;;;;8.60;7.57;;;18.60;1.00;;;;;;5034083;28;20458;-83
2021/06/09 03:06:24;;;;;;;7.43;6.72;;;18.60;1.00;;;;;;5033643;28;20084;-84
2021/06/09 03:09:01;;;;;;;8.90;7.80;;;18.40;1.00;;;;;;5033138;28;20501;-84
2021/06/09 03:11:42;;;;;;;8.90;8.00;;;18.30;1.00;;;;;;5033605;28;20030;-84
2021/06/09 03:14:29;;;;;;;8.18;6.97;;;18.20;1.00;;;;;;5033325;28;20513;-84
2021/06/09 03:17:00;;;;;;;8.35;7.47;;;18.20;1.00;;;;;;5032697;28;20522;-84
2021/06/09 03:19:44;;;;;;;9.25;8.32;;;18.30;1.00;;;;;;5032572;28;20049;-83
2021/06/09 03:22:29;;;;;;;8.40;7.60;;;18.30;1.00;;;;;;5033305;28;20045;-84
2021/06/09 03:24:57;;;;;;;8.45;7.65;;;18.20;1.00;;;;;;5033185;28;20025;-84
2021/06/09 03:27:30;;;;;;;10.52;8.25;;;18.10;1.00;;;;;;5032997;28;20033;-84
2021/06/09 03:30:02;;;;;;;10.05;7.88;;;18.20;1.00;;;;;;5033665;28;20048;-84
2021/06/09 03:32:52;;;;;;;9.15;8.25;;;18.30;1.00;;;;;;5033610;28;20036;-84
2021/06/09 03:35:25;;;;;;;11.35;8.27;;;18.40;1.00;;;;;;5019231;28;20021;-84
2021/06/09 03:37:54;;;;;;;10.13;9.13;;;18.60;1.00;;;;;;5033208;28;20478;-84
2021/06/09 03:40:28;;;;;;;9.70;8.73;;;18.60;1.00;;;;;;5031071;28;20030;-84
2021/06/09 03:42:58;;;;;;;9.60;8.65;;;18.50;1.00;;;;;;5033057;28;20095;-84
2021/06/09 03:45:29;;;;;;;9.18;8.27;;;18.50;1.00;;;;;;5033012;28;20037;-83
2021/06/09 03:47:56;;;;;;;10.10;8.70;;;18.40;1.00;;;;;;5033380;28;20013;-84
2021/06/09 03:50:24;;;;;;;10.40;9.40;;;18.30;1.00;;;;;;5033234;28;20419;-84
2021/06/09 03:52:50;;;;;;;11.43;9.23;;;18.10;1.00;;;;;;5032285;28;20029;-84
2021/06/09 03:55:21;;;;;;;11.02;9.73;;;18.10;1.00;;;;;;5033461;28;20033;-84
2021/06/09 03:57:50;;;;;;;13.32;10.07;;;18.10;1.00;;;;;;5015404;28;20021;-84
2021/06/09 04:00:17;;;;;;;11.02;9.82;;;18.20;1.00;;;;;;5032872;28;20056;-84
2021/06/09 04:02:46;;;;;;;12.18;10.77;;;18.20;1.00;;;;;;5032472;28;20104;-83
2021/06/09 04:05:11;;;;;;;12.07;10.77;;;18.30;1.00;;;;;;5017496;28;20035;-84
2021/06/09 04:07:38;;;;;;;12.02;10.55;;;18.30;1.00;;;;;;5033770;28;20021;-84
2021/06/09 04:10:05;;;;;;;12.35;11.05;;;18.30;1.00;;;;;;5032118;28;20056;-83
2021/06/09 04:12:33;;;;;;;13.05;11.70;;;18.40;1.00;;;;;;5032401;28;20034;-83
2021/06/09 04:15:01;;;;;;;13.25;11.85;;;18.40;1.00;;;;;;5033107;28;20033;-84
2021/06/09 04:17:28;;;;;;;13.70;11.63;;;18.20;1.00;;;;;;5032462;28;20032;-83
2021/06/09 04:19:57;;;;;;;13.75;11.32;;;18.40;1.00;;;;;;5032562;28;20057;-84
2021/06/09 04:22:23;;;;;;;16.27;12.90;;;18.40;1.00;;;;;;5031116;28;20049;-84
2021/06/09 04:24:49;;;;;;;15.38;12.38;;;18.50;1.00;;;;;;5031656;28;20022;-84
2021/06/09 04:27:19;;;;;;;15.00;13.15;;;18.60;1.00;;;;;;5032048;28;20052;-84
2021/06/09 04:29:46;;;;;;;15.65;13.52;;;18.60;1.00;;;;;;5032500;28;20037;-83
2021/06/09 04:32:12;;;;;;;14.73;12.73;;;18.50;1.00;;;;;;5032217;28;20033;-84
2021/06/09 04:34:47;;;;;;;18.05;13.43;;;18.60;1.00;;;;;;5032918;28;20026;-84
2021/06/09 04:37:14;;;;;;;15.18;13.57;;;18.50;1.00;;;;;;5031831;28;20025;-83
2021/06/09 04:39:41;;;;;;;14.93;13.32;;;18.40;1.00;;;;;;5031793;28;20026;-83
2021/06/09 04:42:08;;;;;;;15.65;14.05;;;18.30;1.00;;;;;;5031812;28;20026;-83
2021/06/09 04:44:34;;;;;;;15.85;14.20;;;18.30;1.00;;;;;;5032268;28;20032;-84
2021/06/09 04:47:01;;;;;;;15.10;13.27;;;18.40;1.00;;;;;;5031941;28;20037;-84
2021/06/09 04:49:34;;;;;;;15.13;13.57;;;18.50;1.00;;;;;;5032719;28;20033;-84
2021/06/09 04:52:01;;;;;;;15.73;14.02;;;18.60;1.00;;;;;;5031727;28;20490;-84
2021/06/09 04:54:27;;;;;;;15.27;13.68;;;18.60;1.00;;;;;;5031695;28;20025;-84
2021/06/09 04:56:54;;;;;;;17.10;14.55;;;18.70;1.00;;;;;;5032151;28;20112;-83
2021/06/09 04:59:20;;;;;;;16.63;14.85;;;18.80;1.00;;;;;;5032084;28;20029;-84
2021/06/09 05:01:46;;;;;;;16.52;14.80;;;18.80;1.00;;;;;;5031938;28;20030;-84
2021/06/09 05:04:11;;;;;;;16.80;14.60;;;18.80;1.00;;;;;;5031390;28;20072;-83
2021/06/09 05:06:37;;;;;;;20.58;14.68;;;18.90;1.00;;;;;;5030845;28;20371;-83
2021/06/09 05:09:05;;;;;;;16.38;14.75;;;18.80;1.00;;;;;;5031719;28;20034;-83
2021/06/09 05:11:48;;;;;;;16.52;14.65;;;18.80;1.00;;;;;;5031830;28;20029;-83
2021/06/09 05:14:20;;;;;;;16.88;14.43;;;18.70;1.00;;;;;;5016666;28;20017;-84
2021/06/09 05:16:48;;;;;;;14.82;13.32;;;18.90;1.00;;;;;;5031773;28;20104;-84
2021/06/09 05:19:21;;;;;;;16.13;14.43;;;18.80;1.00;;;;;;5030773;28;20017;-83
2021/06/09 05:21:50;;;;;;;16.25;13.95;;;18.90;1.00;;;;;;5030693;28;20049;-82
2021/06/09 05:24:19;;;;;;;16.33;13.93;;;18.90;1.00;;;;;;5031213;28;20220;-83
2021/06/09 05:26:46;;;;;;;15.88;13.85;;;18.90;1.00;;;;;;5031088;28;20057;-83
2021/06/09 05:29:15;;;;;;;17.30;14.05;;;19.00;1.00;;;;;;5031204;28;20033;-83
2021/06/09 05:31:45;;;;;;;16.98;13.68;;;19.00;1.00;;;;;;5031711;28;20113;-84
2021/06/09 05:34:13;;;;;;;18.40;14.98;;;19.10;1.00;;;;;;5031135;28;20108;-85
2021/06/09 05:36:39;;;;;;;16.88;14.98;;;19.00;1.00;;;;;;5030609;28;20030;-84
2021/06/09 05:39:05;;;;;;;16.80;14.32;;;19.00;1.00;;;;;;5031104;28;20112;-86
2021/06/09 05:41:31;;;;;;;16.55;14.82;;;19.20;1.00;;;;;;5030966;28;20041;-84
2021/06/09 05:43:57;;;;;;;16.20;14.50;;;19.10;1.00;;;;;;5031561;28;20368;-85
2021/06/09 05:46:27;;;;;;;16.67;14.68;;;19.20;1.00;;;;;;5031915;28;20038;-85
2021/06/09 05:48:53;;;;;;;15.43;13.82;;;19.10;1.00;;;;;;5030717;28;20041;-84
2021/06/09 05:51:18;;;;;;;16.70;14.95;;;19.20;1.00;;;;;;5030797;28;20030;-84
2021/06/09 05:53:51;;;;;;;16.42;14.68;;;19.00;1.00;;;;;;5012952;28;20024;-84
2021/06/09 05:56:17;;;;;;;18.35;16.08;;;19.10;1.00;;;;;;5030970;28;20025;-85
2021/06/09 05:58:43;;;;;;;17.42;15.43;;;19.10;1.00;;;;;;5030799;28;20022;-84
2021/06/09 06:01:10;;;;;;;17.88;15.98;;;19.30;1.00;;;;;;5030941;28;20033;-84
2021/06/09 06:03:41;;;;;;;17.85;14.48;;;19.40;1.00;;;;;;5030471;28;20445;-85
2021/06/09 06:06:11;;;;;;;16.98;15.18;;;19.50;1.00;;;;;;5030429;28;20049;-84
2021/06/09 06:08:40;;;;;;;19.23;15.60;;;19.60;1.00;;;;;;5030639;28;20026;-84
2021/06/09 06:11:11;;;;;;;16.35;14.65;;;19.70;1.00;;;;;;5030416;28;20112;-85
2021/06/09 06:13:37;;;;;;;18.75;15.27;;;19.80;1.00;;;;;;5030936;28;20108;-85
2021/06/09 06:16:04;;;;;;;17.38;15.55;;;20.00;1.00;;;;;;5031228;28;20037;-85
2021/06/09 06:18:49;;;;;;;17.17;14.93;;;20.00;1.00;;;;;;5034544;28;20032;-85
2021/06/09 06:21:17;;;;;;;20.33;15.57;;;20.00;1.00;;;;;;5033469;28;20098;-86
2021/06/09 06:23:44;;;;;;;16.27;14.57;;;20.20;1.00;;;;;;5034309;28;20037;-85
2021/06/09 06:26:17;;;;;;;17.77;15.93;;;20.30;1.00;;;;;;5018777;28;20065;-86
2021/06/09 06:28:44;;;;;;;16.50;14.38;;;20.10;1.00;;;;;;5031749;28;20034;-85
2021/06/09 06:31:14;;;;;;;17.55;15.65;;;20.20;1.00;;;;;;5034818;28;20124;-84
2021/06/09 06:33:41;;;;;;;16.30;14.60;;;20.20;1.00;;;;;;5033893;28;20367;-84
2021/06/09 06:36:09;;;;;;;17.02;14.98;;;20.10;1.00;;;;;;5034797;28;20017;-84
2021/06/09 06:38:37;;;;;;;14.98;13.48;;;20.20;1.00;;;;;;5034472;28;20029;-85
2021/06/09 06:41:04;;;;;;;15.50;13.98;;;20.10;1.00;;;;;;5034917;28;20045;-84
2021/06/09 06:43:30;;;;;;;15.88;14.05;;;20.10;1.00;;;;;;5035585;28;20050;-85
2021/06/09 06:45:56;;;;;;;15.45;13.85;;;20.20;1.00;;;;;;5034214;28;20457;-84
2021/06/09 06:48:23;;;;;;;15.43;13.82;;;20.50;1.00;;;;;;5016337;28;20025;-85
2021/06/09 06:50:50;;;;;;;15.65;13.98;;;20.50;1.00;;;;;;5034652;28;20112;-84
2021/06/09 06:53:17;;;;;;;14.90;13.35;;;20.40;1.00;;;;;;5034373;28;20064;-84
2021/06/09 06:55:42;;;;;;;15.27;13.43;;;20.60;1.00;;;;;;5033927;28;20478;-84
2021/06/09 06:58:09;;;;;;;15.05;13.55;;;20.70;1.00;;;;;;5034256;28;20083;-84
2021/06/09 07:00:35;;;;;;;15.05;13.45;;;20.60;1.00;;;;;;5034351;28;20022;-85
2021/06/09 07:03:04;;;;;;;14.50;12.95;;;20.60;1.00;;;;;;5033410;28;20397;-85
2021/06/09 07:05:33;;;;;;;14.40;12.63;;;20.70;1.00;;;;;;5034278;28;20422;-85
2021/06/09 07:08:00;;;;;;;14.43;13.02;;;20.70;1.00;;;;;;5016264;28;20047;-84
2021/06/09 07:10:27;;;;;;;13.27;11.93;;;20.70;1.00;;;;;;5034109;28;20075;-84
2021/06/09 07:12:54;;;;;;;16.80;13.50;;;20.80;1.00;;;;;;5034269;28;20022;-84
2021/06/09 07:15:21;;;;;;;13.80;11.73;;;20.60;1.00;;;;;;5033038;28;20034;-85
2021/06/09 07:17:58;;;;;;;13.57;12.18;;;20.60;1.00;;;;;;5033034;28;20386;-84
2021/06/09 07:20:25;;;;;;;13.32;11.93;;;20.60;1.00;;;;;;5033396;28;20092;-88
2021/06/09 07:22:53;;;;;;;13.02;11.73;;;20.80;1.00;;;;;;5034036;28;20042;-86
2021/06/09 07:25:19;;;;;;;12.68;11.40;;;20.90;1.00;;;;;;5033826;28;20402;-86
2021/06/09 07:27:50;;;;;;;12.77;11.38;;;20.90;1.00;;;;;;5032141;28;20021;-86
2021/06/09 07:30:18;;;;;;;12.00;10.80;;;21.10;1.00;;;;;;5015778;28;20414;-86
2021/06/09 07:32:46;;;;;;;11.55;10.40;;;21.30;1.00;;;;;;5032879;28;20104;-87
2021/06/09 07:35:14;;;;;;;11.10;10.10;;;21.60;1.00;;;;;;5017421;28;20022;-87
2021/06/09 07:37:48;;;;;;;12.10;10.90;;;21.80;1.00;;;;;;5029850;28;20032;-87
2021/06/09 07:40:21;;;;;;;11.50;10.40;;;21.90;1.00;;;;;;5033121;28;20116;-87
2021/06/09 07:42:54;;;;;;;11.80;10.70;;;21.70;1.00;;;;;;5033230;28;20048;-87
2021/06/09 07:45:22;;;;;;;11.20;10.20;;;21.70;1.00;;;;;;5032822;28;20095;-87
2021/06/09 07:47:49;;;;;;;11.63;10.63;;;22.00;1.00;;;;;;5032674;28;20474;-87
2021/06/09 07:50:25;;;;;;;11.82;10.63;;;22.30;1.00;;;;;;5033353;28;20410;-87
2021/06/09 07:52:54;;;;;;;12.52;11.27;;;22.30;1.00;;;;;;5033166;28;20025;-87
2021/06/09 07:55:20;;;;;;;12.27;11.02;;;22.00;1.00;;;;;;5033721;28;20433;-86
2021/06/09 07:57:46;;;;;;;11.77;10.20;;;21.90;1.00;;;;;;5032765;28;20103;-87
2021/06/09 08:00:13;;;;;;;11.77;10.57;;;21.90;1.00;;;;;;5032563;28;20120;-87
2021/06/09 08:02:41;;;;;;;11.63;10.52;;;21.90;1.00;;;;;;5032392;28;20017;-87
2021/06/09 08:05:08;;;;;;;11.77;10.68;;;21.90;1.00;;;;;;5033188;28;20118;-86
2021/06/09 08:07:41;;;;;;;10.93;9.82;;;22.10;1.00;;;;;;5033264;28;20441;-87
2021/06/09 08:10:09;;;;;;;10.77;9.68;;;22.20;1.00;;;;;;5032779;28;20044;-87
2021/06/09 08:12:35;;;;;;;10.85;9.85;;;22.40;1.00;;;;;;5033015;28;20029;-87
2021/06/09 08:15:02;;;;;;;10.48;9.57;;;22.90;1.00;;;;;;5032000;28;20120;-87
2021/06/09 08:17:28;;;;;;;10.85;9.85;;;23.10;1.00;;;;;;5014562;28;20018;-87
2021/06/09 08:19:54;;;;;;;12.00;10.68;;;23.40;99.90;;;;;;5033246;28;20041;-87
2021/06/09 08:22:20;;;;;;;11.18;10.07;;;23.60;99.90;;;;;;5032730;28;20419;-87
2021/06/09 08:24:45;;;;;;;12.55;11.43;;;23.80;99.90;;;;;;5032502;28;20068;-87
2021/06/09 08:27:11;;;;;;;11.63;10.45;;;23.80;99.90;;;;;;5032147;28;20052;-86
2021/06/09 08:29:38;;;;;;;10.13;9.15;;;24.10;99.90;;;;;;5031746;28;20501;-87
2021/06/09 08:32:05;;;;;;;8.73;7.88;;;24.30;99.90;;;;;;5032660;28;20097;-87
2021/06/09 08:34:32;;;;;;;8.60;7.80;;;24.10;99.90;;;;;;5032737;28;20444;-86
2021/06/09 08:36:58;;;;;;;9.23;8.43;;;24.00;99.90;;;;;;5032257;28;20029;-86
2021/06/09 08:39:26;;;;;;;9.52;8.57;;;24.00;99.90;;;;;;5032207;28;20053;-86
2021/06/09 08:41:54;;;;;;;10.23;9.27;;;23.90;99.90;;;;;;5032030;28;20034;-87
2021/06/09 08:44:21;;;;;;;9.05;8.15;;;23.90;99.90;;;;;;5013762;28;20485;-86
2021/06/09 08:46:48;;;;;;;9.80;8.80;;;24.10;99.90;;;;;;5032167;28;20025;-87
2021/06/09 08:49:17;;;;;;;10.57;9.45;;;24.10;99.90;;;;;;5031053;28;20041;-86
2021/06/09 08:51:43;;;;;;;9.23;8.32;;;24.10;99.90;;;;;;5031976;28;20021;-87
2021/06/09 08:54:09;;;;;;;8.50;7.80;;;24.40;99.90;;;;;;5032312;28;20490;-87
2021/06/09 08:56:37;;;;;;;8.77;7.97;;;24.70;99.90;;;;;;5031802;28;20021;-87
2021/06/09 08:59:04;;;;;;;9.05;8.20;;;24.60;99.90;;;;;;5031223;28;20037;-86
2021/06/09 09:01:34;;;;;;;9.95;9.05;;;24.50;99.90;;;;;;5032100;28;20021;-86
2021/06/09 09:04:00;;;;;;;10.02;8.95;;;24.90;99.90;;;;;;5031645;28;20037;-87
2021/06/09 09:06:26;;;;;;;9.10;8.30;;;25.00;99.90;;;;;;5031662;28;20022;-87
2021/06/09 09:08:53;;;;;;;10.70;9.75;;;24.90;99.90;;;;;;5031295;28;20033;-86
2021/06/09 09:11:20;;;;;;;9.93;9.05;;;24.90;99.90;;;;;;5031999;28;20028;-86
2021/06/09 09:13:46;;;;;;;9.32;8.43;;;25.20;99.90;;;;;;5031095;28;20028;-87
2021/06/09 09:16:12;;;;;;;9.18;8.38;;;25.30;99.90;;;;;;5032002;28;20033;-87
2021/06/09 09:18:56;;;;;;;9.15;8.38;;;25.40;99.90;;;;;;5031221;28;20047;-86
2021/06/09 09:21:42;;;;;;;10.25;9.20;;;25.30;99.90;;;;;;5031277;28;20056;-87
2021/06/09 09:24:10;;;;;;;10.05;9.10;;;25.00;99.90;;;;;;5031130;28;20030;-86
2021/06/09 09:26:38;;;;;;;10.95;9.85;;;25.30;99.90;;;;;;5031507;28;20444;-86
2021/06/09 09:29:21;;;;;;;10.68;9.65;;;25.50;99.90;;;;;;5030733;28;20128;-86
2021/06/09 09:31:50;;;;;;;10.63;9.60;;;26.00;99.90;;;;;;5028196;28;20029;-87
2021/06/09 09:34:37;;;;;;;12.60;10.63;;;26.20;99.90;;;;;;5031427;28;20053;-87
2021/06/09 09:37:17;;;;;;;12.45;11.25;;;25.90;99.90;;;;;;5031616;28;20044;-86
2021/06/09 09:39:51;;;;;;;10.82;9.93;;;26.40;99.90;;;;;;5031084;28;20025;-86
2021/06/09 09:42:21;;;;;;;11.38;10.27;;;26.80;99.90;;;;;;5030568;28;20041;-87
2021/06/09 09:44:48;;;;;;;11.77;10.77;;;27.10;99.90;;;;;;5031252;28;20021;-87
2021/06/09 09:47:15;;;;;;;12.32;11.18;;;27.10;99.90;;;;;;5031208;28;20037;-87
2021/06/09 09:49:41;;;;;;;11.73;10.63;;;27.00;99.90;;;;;;5031382;28;20044;-87
2021/06/09 09:52:07;;;;;;;10.77;9.75;;;26.80;99.90;;;;;;5030741;28;20030;-87
2021/06/09 09:54:36;;;;;;;10.10;9.13;;;26.70;99.90;;;;;;5030629;28;20033;-87
2021/06/09 09:57:07;;;;;;;11.00;9.93;;;26.70;99.90;;;;;;5030678;28;20030;-87
2021/06/09 09:59:33;;;;;;;10.30;9.40;;;26.80;99.90;;;;;;5031267;28;20069;-87
2021/06/09 10:02:02;;;;;;;13.80;12.38;;;26.80;99.90;;;;;;5013098;28;20029;-87
2021/06/09 10:04:33;;;;;;;12.07;11.05;;;26.40;99.90;;;;;;5013931;28;20394;-87
2021/06/09 10:06:59;;;;;;;13.63;12.38;;;26.80;99.90;;;;;;5030723;28;20060;-87
2021/06/09 10:09:36;;;;;;;13.18;11.88;;;26.90;99.90;;;;;;5030916;28;20426;-87
2021/06/09 10:12:11;;;;;;;12.75;11.65;;;27.10;99.90;;;;;;5030192;28;20026;-87
2021/06/09 10:14:46;;;;;;;12.10;11.10;;;27.20;99.90;;;;;;5030758;28;20026;-86
2021/06/09 10:17:13;;;;;;;12.80;11.68;;;27.50;99.90;;;;;;5015339;28;20026;-87
2021/06/09 10:19:42;;;;;;;14.07;12.82;;;27.50;99.90;;;;;;5027986;28;20025;-87
2021/06/09 10:22:19;;;;;;;12.73;11.52;;;27.30;99.90;;;;;;5030252;28;20052;-87
2021/06/09 10:24:55;;;;;;;12.32;11.13;;;27.30;99.90;;;;;;5030435;28;20030;-87
2021/06/09 10:27:48;;;;;;;13.55;12.35;;;27.30;99.90;;;;;;5030248;28;20520;-86
2021/06/09 10:30:20;;;;;;;14.05;12.65;;;27.20;99.90;;;;;;5030967;28;20044;-87
2021/06/09 10:32:55;;;;;;;12.27;11.18;;;27.20;99.90;;;;;;5030806;28;20026;-87
2021/06/09 10:35:24;;;;;;;12.90;11.25;;;27.50;99.90;;;;;;5030441;28;20034;-87
2021/06/09 10:37:50;;;;;;;13.88;12.57;;;27.50;99.90;;;;;;5030760;28;20231;-87
2021/06/09 10:40:19;;;;;;;13.70;12.40;;;27.10;99.90;;;;;;5030507;28;20099;-87
2021/06/09 10:42:48;;;;;;;15.18;13.77;;;27.00;99.90;;;;;;5029130;28;20026;-86
2021/06/09 10:45:16;;;;;;;12.68;11.48;;;26.40;99.90;;;;;;5031037;28;20033;-88
2021/06/09 10:47:45;;;;;;;14.88;13.23;;;26.90;99.90;;;;;;5030135;28;20014;-87
2021/06/09 10:50:11;;;;;;;14.75;13.38;;;27.00;99.90;;;;;;5015011;28;20033;-87
2021/06/09 10:52:39;;;;;;;14.23;12.90;;;27.00;99.90;;;;;;5030728;28;20018;-87
2021/06/09 10:55:06;;;;;;;13.80;12.45;;;27.00;99.90;;;;;;5030035;28;20048;-87
2021/06/09 10:57:32;;;;;;;13.80;12.60;;;27.60;99.90;;;;;;5030159;28;20144;-87
2021/06/09 10:59:57;;;;;;;13.43;12.25;;;27.40;99.90;;;;;;5030476;28;20034;-87
2021/06/09 11:02:24;;;;;;;14.10;12.80;;;27.50;99.90;;;;;;5031439;28;20028;-87
2021/06/09 11:04:54;;;;;;;14.85;13.52;;;27.50;99.90;;;;;;5034326;28;20057;-87
2021/06/09 11:07:29;;;;;;;14.15;12.82;;;27.60;99.90;;;;;;5034527;28;20036;-86
2021/06/09 11:09:57;;;;;;;13.20;11.90;;;28.10;99.90;;;;;;5033389;28;20059;-87
2021/06/09 11:12:25;;;;;;;14.77;13.50;;;28.00;99.90;;;;;;5033525;28;20045;-87
2021/06/09 11:14:55;;;;;;;15.38;14.02;;;27.50;99.90;;;;;;5033531;28;20501;-87
2021/06/09 11:17:33;;;;;;;13.60;12.40;;;27.70;99.90;;;;;;5016171;28;20029;-87
2021/06/09 11:20:21;;;;;;;13.35;12.25;;;27.60;99.90;;;;;;5033624;28;20108;-87
2021/06/09 11:22:54;;;;;;;13.68;12.45;;;27.70;99.90;;;;;;5030295;28;20061;-87
2021/06/09 11:25:23;;;;;;;11.63;10.63;;;27.80;99.90;;;;;;5033679;28;20132;-87
2021/06/09 11:28:00;;;;;;;9.80;8.90;;;28.20;99.90;;;;;;5033410;28;20394;-87
2021/06/09 11:30:26;;;;;;;9.35;8.43;;;28.20;99.90;;;;;;5033221;28;20026;-87
2021/06/09 11:32:58;;;;;;;11.80;10.80;;;27.90;99.90;;;;;;5033567;28;20025;-87
2021/06/09 11:35:50;;;;;;;11.02;10.05;;;27.50;99.90;;;;;;5033357;28;20087;-87
2021/06/09 11:38:21;;;;;;;10.30;9.40;;;27.70;99.90;;;;;;5017596;28;20490;-87
2021/06/09 11:40:51;;;;;;;9.30;8.50;;;28.00;99.90;;;;;;5033666;28;20116;-87
2021/06/09 11:43:24;;;;;;;7.80;7.15;;;28.40;99.90;;;;;;5033189;28;20017;-87
2021/06/09 11:46:00;;;;;;;10.43;9.52;;;28.60;99.90;;;;;;5033477;28;20026;-87
2021/06/09 11:48:28;;;;;;;10.18;9.18;;;28.40;99.90;;;;;;5033102;28;20021;-86
2021/06/09 11:50:57;;;;;;;9.45;8.65;;;28.10;99.90;;;;;;5033099;28;20037;-86
2021/06/09 11:53:40;;;;;;;10.02;9.23;;;28.10;99.90;;;;;;5032297;28;20434;-87
2021/06/09 11:56:18;;;;;;;9.02;8.23;;;28.70;99.90;;;;;;5033230;28;20029;-87
2021/06/09 11:58:45;;;;;;;8.10;7.40;;;29.10;99.90;;;;;;5029601;28;20030;-87
2021/06/09 12:01:13;;;;;;;7.70;7.07;;;30.00;99.90;;;;;;5033369;28;20025;-87
2021/06/09 12:03:40;;;;;;;8.00;7.30;;;30.30;99.90;;;;;;5032984;28;20512;-87
2021/06/09 12:06:19;;;;;;;6.85;6.28;;;31.40;99.90;;;;;;5032446;28;20056;-87
2021/06/09 12:08:49;;;;;;;6.85;6.25;;;32.30;99.90;;;;;;5032513;28;20017;-87
2021/06/09 12:11:16;;;;;;;7.20;6.60;;;31.40;99.90;;;;;;5032799;28;20410;-87
2021/06/09 12:13:42;;;;;;;7.68;6.97;;;34.70;99.90;;;;;;5032621;28;20436;-88
2021/06/09 12:16:15;;;;;;;6.68;6.15;;;35.60;99.90;;;;;;5032419;28;20059;-87
2021/06/09 12:18:44;;;;;;;7.20;6.57;;;36.70;99.90;;;;;;5032343;28;20037;-87
2021/06/09 12:21:12;;;;;;;6.65;6.15;;;37.20;99.90;;;;;;5032111;28;20040;-87
2021/06/09 12:23:51;;;;;;;8.00;7.40;;;37.90;99.90;;;;;;5032260;28;20021;-88
2021/06/09 12:26:17;;;;;;;7.50;6.78;;;37.00;99.90;;;;;;5033152;28;20044;-88
2021/06/09 12:28:42;;;;;;;7.90;7.15;;;37.60;99.90;;;;;;5032004;28;20025;-88
2021/06/09 12:31:11;;;;;;;7.78;7.18;;;36.00;99.90;;;;;;5032837;28;20044;-87
2021/06/09 12:33:42;;;;;;;7.68;6.97;;;37.20;99.90;;;;;;5032301;28;20025;-87
2021/06/09 12:36:14;;;;;;;7.65;6.95;;;38.90;99.90;;;;;;5031711;28;20033;-87
2021/06/09 12:38:41;;;;;;;8.07;7.45;;;38.90;99.90;;;;;;5031979;28;20029;-87
2021/06/09 12:41:11;;;;;;;7.63;7.03;;;37.10;99.90;;;;;;5032386;28;20409;-87
2021/06/09 12:43:39;;;;;;;8.23;7.63;;;38.20;99.90;;;;;;5032616;28;20024;-87
2021/06/09 12:46:04;;;;;;;7.78;7.18;;;37.80;99.90;;;;;;5031841;28;20394;-87
2021/06/09 12:48:35;;;;;;;7.30;6.57;;;38.30;99.90;;;;;;5032243;28;20029;-87
2021/06/09 12:51:02;;;;;;;8.00;7.32;;;39.50;99.90;;;;;;5031406;28;20079;-87
2021/06/09 12:53:30;;;;;;;6.93;6.43;;;39.10;99.90;;;;;;5032032;28;20068;-88